Time;durP1;ratioP1;P1;durP2;ratioP2;P2;SDS_P1;SDS_P2;PMS_P1;PMS_P2;Temp;Humidity;BMP_temperature;BMP_pressure;BME280_temperature;BME280_humidity;BME280_pressure;Samples;Min_cycle;Max_cycle;Signal;HPM_P1;HPM_P2
2021/12/20 00:02:08;;;;;;;22.15;2.90;;;;;;;13.82;100.00;102673.44;5095122;28;20371;-50
2021/12/20 00:04:34;;;;;;;18.67;3.05;;;;;;;13.82;100.00;102670.75;5094958;28;20103;-47
2021/12/20 00:07:00;;;;;;;18.52;2.33;;;;;;;13.77;100.00;102670.44;5077016;28;20036;-49
2021/12/20 00:09:26;;;;;;;13.50;2.53;;;;;;;13.57;100.00;102670.81;5060689;28;20127;-47
2021/12/20 00:11:51;;;;;;;9.40;2.20;;;;;;;13.75;100.00;102659.03;5095278;28;20288;-48
2021/12/20 00:14:17;;;;;;;15.68;2.70;;;;;;;13.69;100.00;102657.03;5094953;28;20343;-46
2021/12/20 00:16:42;;;;;;;12.68;2.58;;;;;;;13.64;100.00;102659.41;5076553;28;20040;-48
2021/12/20 00:19:09;;;;;;;26.77;2.83;;;;;;;13.76;100.00;102663.38;5076627;28;20028;-48
2021/12/20 00:21:36;;;;;;;16.85;3.28;;;;;;;13.74;100.00;102658.19;5060095;28;20048;-48
2021/12/20 00:24:02;;;;;;;23.50;3.17;;;;;;;13.66;100.00;102654.69;5093551;28;20546;-47
2021/12/20 00:26:28;;;;;;;13.50;3.40;;;;;;;13.68;100.00;102655.34;5094511;28;20040;-51
2021/12/20 00:28:54;;;;;;;19.17;2.80;;;;;;;13.71;100.00;102655.81;5076194;28;20495;-50
2021/12/20 00:31:19;;;;;;;18.35;3.30;;;;;;;13.71;100.00;102658.50;5042593;28;20082;-51
2021/12/20 00:33:45;;;;;;;17.65;2.92;;;;;;;13.75;100.00;102656.31;5043121;28;20039;-52
2021/12/20 00:36:11;;;;;;;16.65;2.88;;;;;;;13.73;100.00;102655.66;5094180;28;20032;-49
2021/12/20 00:41:22;;;;;;;20.90;3.13;;;;;;;13.60;100.00;102643.59;5094012;28;20446;-51
2021/12/20 00:43:48;;;;;;;;;;;;;;;13.57;100.00;102646.63;5060168;28;20695;-51
2021/12/20 00:46:13;;;;;;;13.70;2.10;;;;;;;13.60;100.00;102642.75;5075845;28;19954;-49
2021/12/20 00:48:39;;;;;;;23.23;3.53;;;;;;;13.69;100.00;102652.47;5093904;28;20044;-51
2021/12/20 00:51:05;;;;;;;15.75;2.47;;;;;;;13.64;100.00;102654.03;5059489;28;20292;-51
2021/12/20 00:53:31;;;;;;;13.43;2.60;;;;;;;13.63;100.00;102647.78;5075996;28;20032;-48
2021/12/20 00:55:56;;;;;;;12.52;2.50;;;;;;;13.62;100.00;102652.34;5076125;28;20024;-49
2021/12/20 00:58:23;;;;;;;13.27;2.60;;;;;;;13.47;100.00;102654.03;5059344;28;20032;-49
2021/12/20 01:00:51;;;;;;;;;;;;;;;13.40;100.00;102658.41;5076171;28;20477;-53
2021/12/20 01:03:18;;;;;;;19.17;3.33;;;;;;;13.51;100.00;102665.31;5093919;28;19911;-51
2021/12/20 01:05:45;;;;;;;16.65;3.00;;;;;;;13.61;100.00;102653.34;5093805;28;20114;-54
2021/12/20 01:08:11;;;;;;;19.80;2.75;;;;;;;13.58;100.00;102650.97;5059465;28;20054;-51
2021/12/20 01:10:40;;;;;;;17.85;3.00;;;;;;;13.61;100.00;102649.81;5093621;28;20052;-49
2021/12/20 01:13:07;;;;;;;17.33;2.75;;;;;;;13.62;100.00;102646.13;5093614;28;20032;-53
2021/12/20 01:15:36;;;;;;;15.98;2.90;;;;;;;13.61;100.00;102657.88;5075428;28;20055;-47
2021/12/20 01:18:04;;;;;;;21.08;2.80;;;;;;;13.64;100.00;102644.09;5093784;28;20090;-52
2021/12/20 01:20:30;;;;;;;20.80;3.38;;;;;;;13.58;100.00;102653.66;5094002;28;20427;-48
2021/12/20 01:22:56;;;;;;;21.23;3.90;;;;;;;13.56;100.00;102642.25;5093449;28;20078;-52
2021/12/20 01:25:23;;;;;;;21.65;3.10;;;;;;;13.45;100.00;102640.75;5093299;28;20487;-50
2021/12/20 01:27:48;;;;;;;;;;;;;;;13.49;100.00;102646.63;5075524;28;20521;-50
2021/12/20 01:30:16;;;;;;;22.83;4.10;;;;;;;13.35;100.00;102640.09;5093446;28;19954;-54
2021/12/20 01:32:43;;;;;;;20.65;3.53;;;;;;;13.39;100.00;102646.78;5093544;28;20067;-50
2021/12/20 01:35:10;;;;;;;15.35;3.05;;;;;;;13.37;100.00;102647.97;5075303;28;20051;-50
2021/12/20 01:37:36;;;;;;;25.73;3.03;;;;;;;13.38;100.00;102645.13;5093128;28;20106;-54
2021/12/20 01:40:03;;;;;;;18.50;2.95;;;;;;;13.28;100.00;102644.47;5093110;28;20484;-52
2021/12/20 01:42:32;;;;;;;14.43;2.58;;;;;;;13.37;100.00;102648.81;5075168;28;20032;-50
2021/12/20 01:44:58;;;;;;;20.35;3.75;;;;;;;13.40;100.00;102650.34;5093977;28;20460;-51
2021/12/20 01:47:31;;;;;;;24.38;3.80;;;;;;;13.46;100.00;102650.50;5093217;28;20036;-53
2021/12/20 01:50:03;;;;;;;17.30;3.88;;;;;;;13.43;100.00;102644.66;5075061;28;20449;-53
2021/12/20 01:52:39;;;;;;;16.45;4.18;;;;;;;13.37;100.00;102638.06;5076736;28;20035;-52
2021/12/20 01:55:06;;;;;;;18.52;3.17;;;;;;;13.43;100.00;102637.41;5075320;28;20036;-54
2021/12/20 01:57:32;;;;;;;19.87;3.30;;;;;;;13.43;100.00;102640.09;5058213;28;20024;-49
2021/12/20 01:59:57;;;;;;;19.77;2.83;;;;;;;13.40;100.00;102637.72;5058017;28;20284;-50
2021/12/20 02:02:23;;;;;;;26.00;4.70;;;;;;;13.44;100.00;102643.63;5092689;28;20035;-47
2021/12/20 02:04:50;;;;;;;15.43;2.75;;;;;;;13.47;100.00;102640.59;5074759;28;20450;-52
2021/12/20 02:07:50;;;;;;;34.42;4.57;;;;;;;13.38;100.00;102645.13;5092906;28;20032;-49
2021/12/20 02:10:19;;;;;;;24.25;3.53;;;;;;;13.45;100.00;102638.06;5075544;28;20054;-53
2021/12/20 02:12:46;;;;;;;23.02;3.58;;;;;;;13.46;100.00;102638.94;5074628;28;20365;-50
2021/12/20 02:15:12;;;;;;;;;;;;;;;13.44;100.00;102638.25;5058137;28;20044;-56
2021/12/20 02:17:39;;;;;;;24.00;2.63;;;;;;;13.47;100.00;102637.91;5074501;28;19911;-52
2021/12/20 02:20:06;;;;;;;21.63;2.90;;;;;;;13.43;100.00;102640.09;5092357;28;20039;-54
2021/12/20 02:22:31;;;;;;;33.60;3.47;;;;;;;13.51;100.00;102638.41;5092800;28;20023;-54
2021/12/20 02:24:57;;;;;;;24.93;3.30;;;;;;;13.43;100.00;102647.34;5075299;28;20054;-53
2021/12/20 02:27:23;;;;;;;24.50;3.87;;;;;;;13.38;100.00;102642.44;5092794;28;20289;-54
2021/12/20 02:30:12;;;;;;;24.57;4.27;;;;;;;13.38;100.00;102638.88;5074801;28;20428;-51
2021/12/20 02:38:26;;;;;;;19.50;2.72;;;;;;;13.32;100.00;102635.88;5092449;28;20346;-49
2021/12/20 02:41:07;;;;;;;18.38;3.55;;;;;;;13.41;100.00;102630.50;5092746;28;20058;-49
2021/12/20 02:43:38;;;;;;;28.63;3.67;;;;;;;13.41;100.00;102631.34;5092568;28;20032;-52
2021/12/20 02:46:07;;;;;;;19.45;4.18;;;;;;;13.39;100.00;102624.47;5092353;28;20105;-49
2021/12/20 02:48:32;;;;;;;23.45;3.22;;;;;;;13.39;100.00;102621.78;5095425;28;20442;-54
2021/12/20 02:50:58;;;;;;;20.57;4.50;;;;;;;13.37;100.00;102627.31;5078428;28;20044;-54
2021/12/20 02:53:23;;;;;;;33.57;3.80;;;;;;;13.34;100.00;102623.09;5078165;28;20116;-54
2021/12/20 02:55:49;;;;;;;18.20;3.97;;;;;;;13.30;100.00;102619.09;5096398;28;20360;-48
2021/12/20 02:58:16;;;;;;;21.45;6.80;;;;;;;13.33;100.00;102626.81;5096289;28;20035;-54
2021/12/20 03:00:41;;;;;;;25.55;4.80;;;;;;;13.38;100.00;102618.25;5078797;28;20130;-49
2021/12/20 03:03:08;;;;;;;23.57;4.37;;;;;;;13.39;100.00;102619.09;5096737;28;20440;-53
2021/12/20 03:05:35;;;;;;;37.70;4.50;;;;;;;13.37;100.00;102634.53;5096352;28;20269;-54
2021/12/20 03:08:02;;;;;;;21.40;2.97;;;;;;;13.35;100.00;102623.97;5078833;28;20118;-50
2021/12/20 03:10:29;;;;;;;22.10;4.03;;;;;;;13.28;100.00;102629.16;5096041;28;20044;-49
2021/12/20 03:12:56;;;;;;;28.77;3.10;;;;;;;13.24;100.00;102627.84;5061522;28;20163;-52
2021/12/20 03:15:25;;;;;;;31.67;3.45;;;;;;;13.26;100.00;102628.50;5078242;28;20276;-51
2021/12/20 03:17:57;;;;;;;25.85;4.20;;;;;;;13.29;100.00;102628.16;5077666;28;20145;-54
2021/12/20 03:20:23;;;;;;;21.95;2.90;;;;;;;13.36;100.00;102630.16;5077765;28;20038;-54
2021/12/20 03:22:49;;;;;;;19.35;3.28;;;;;;;13.26;100.00;102628.50;5077610;28;20158;-53
2021/12/20 03:25:15;;;;;;;30.48;4.63;;;;;;;13.29;100.00;102624.66;5096068;28;20066;-51
2021/12/20 03:27:41;;;;;;;27.48;3.30;;;;;;;13.28;100.00;102621.09;5095821;28;20054;-50
2021/12/20 03:30:10;;;;;;;21.92;3.10;;;;;;;13.22;100.00;102618.25;5077361;28;20039;-47
2021/12/20 03:32:36;;;;;;;26.73;3.47;;;;;;;13.12;100.00;102624.66;5095705;28;20032;-52
2021/12/20 03:35:02;;;;;;;23.63;2.78;;;;;;;13.24;100.00;102621.59;5077709;28;20031;-48
2021/12/20 03:37:28;;;;;;;22.23;4.38;;;;;;;13.24;100.00;102633.22;5060750;28;20123;-49
2021/12/20 03:39:54;;;;;;;19.85;3.60;;;;;;;13.23;100.00;102623.47;5077295;28;20110;-48
2021/12/20 03:42:20;;;;;;;30.42;4.10;;;;;;;13.22;100.00;102623.63;5077048;28;20048;-46
2021/12/20 03:44:46;;;;;;;34.47;4.63;;;;;;;13.18;100.00;102620.47;5076940;28;20139;-50
2021/12/20 03:47:14;;;;;;;28.42;4.15;;;;;;;13.16;100.00;102625.16;5095299;28;20035;-49
2021/12/20 03:49:43;;;;;;;24.63;3.50;;;;;;;13.21;100.00;102617.44;5095600;28;20044;-46
2021/12/20 03:52:10;;;;;;;23.05;4.78;;;;;;;13.18;100.00;102615.09;5076901;28;20448;-47
2021/12/20 03:54:36;;;;;;;27.45;3.78;;;;;;;13.21;100.00;102630.88;5076862;28;20042;-50
2021/12/20 03:57:03;;;;;;;27.88;4.03;;;;;;;13.19;100.00;102620.28;5094771;28;20154;-50
2021/12/20 03:59:29;;;;;;;21.63;4.88;;;;;;;13.23;100.00;102618.09;5094672;28;20032;-51
2021/12/20 04:01:56;;;;;;;27.25;3.42;;;;;;;13.12;100.00;102619.28;5060527;28;20074;-48
2021/12/20 04:04:22;;;;;;;30.73;4.05;;;;;;;13.13;100.00;102618.28;5044315;28;20123;-52
2021/12/20 04:06:48;;;;;;;25.67;3.53;;;;;;;13.00;100.00;102621.47;5076837;28;20115;-48
2021/12/20 04:09:13;;;;;;;21.92;3.15;;;;;;;12.98;100.00;102615.44;5094739;28;20043;-50
2021/12/20 04:11:39;;;;;;;24.33;3.53;;;;;;;13.11;100.00;102622.13;5095097;28;20040;-48
2021/12/20 04:14:06;;;;;;;18.63;4.88;;;;;;;13.13;100.00;102620.97;5094998;28;20377;-48
2021/12/20 04:16:33;;;;;;;26.50;4.32;;;;;;;13.14;100.00;102611.88;5094693;28;20120;-48
2021/12/20 04:18:58;;;;;;;21.50;4.10;;;;;;;13.14;100.00;102611.88;5094899;28;20036;-48
2021/12/20 04:21:24;;;;;;;26.90;3.72;;;;;;;13.17;100.00;102616.91;5076713;28;20164;-47
2021/12/20 04:23:50;;;;;;;27.33;3.28;;;;;;;13.16;100.00;102617.94;5077151;28;20028;-50
2021/12/20 04:26:15;;;;;;;35.67;4.57;;;;;;;13.14;100.00;102617.25;5094813;28;20119;-52
2021/12/20 04:28:41;;;;;;;36.23;3.77;;;;;;;13.08;100.00;102626.00;5095058;28;20252;-52
2021/12/20 04:31:07;;;;;;;14.90;3.85;;;;;;;13.09;100.00;102626.81;5094546;28;20043;-52
2021/12/20 04:33:33;;;;;;;17.25;3.28;;;;;;;13.10;100.00;102615.06;5094702;28;20028;-55
2021/12/20 04:35:58;;;;;;;29.75;3.67;;;;;;;13.11;100.00;102616.75;5076290;28;20059;-48
2021/12/20 04:38:28;;;;;;;22.20;3.67;;;;;;;13.11;100.00;102622.13;5076729;28;20131;-50
2021/12/20 04:40:54;;;;;;;23.42;4.03;;;;;;;13.08;100.00;102619.78;5094624;28;20371;-53
2021/12/20 04:43:20;;;;;;;21.80;3.67;;;;;;;13.10;100.00;102613.25;5094151;28;20037;-50
2021/12/20 04:45:46;;;;;;;21.55;2.85;;;;;;;13.10;100.00;102615.94;5094261;28;20040;-49
2021/12/20 04:48:12;;;;;;;28.67;5.43;;;;;;;13.08;100.00;102612.56;5094064;28;20044;-52
2021/12/20 04:50:38;;;;;;;20.10;4.30;;;;;;;13.04;100.00;102616.59;5059428;28;20046;-47
2021/12/20 04:53:04;;;;;;;;;;;;;;;13.04;100.00;102622.81;5059660;28;20036;-48
2021/12/20 04:55:30;;;;;;;20.03;3.43;;;;;;;12.97;100.00;102619.13;5076577;28;20379;-49
2021/12/20 04:57:57;;;;;;;16.60;3.03;;;;;;;12.92;100.00;102624.16;5094227;28;20133;-50
2021/12/20 05:00:29;;;;;;;18.83;3.30;;;;;;;13.05;100.00;102621.78;5076155;28;20059;-50
2021/12/20 05:02:56;;;;;;;20.13;3.55;;;;;;;13.11;100.00;102616.75;5093924;28;20097;-53
2021/12/20 05:05:23;;;;;;;31.13;3.92;;;;;;;13.11;100.00;102614.91;5076258;28;20032;-54
2021/12/20 05:07:49;;;;;;;23.92;3.33;;;;;;;12.96;100.00;102621.97;5093980;28;20097;-48
2021/12/20 05:10:34;;;;;;;25.70;4.63;;;;;;;12.87;100.00;102615.75;5093267;28;20034;-47
2021/12/20 05:13:04;;;;;;;21.75;4.43;;;;;;;12.94;100.00;102614.09;5076091;28;20039;-50
2021/12/20 05:15:30;;;;;;;23.77;4.20;;;;;;;12.98;100.00;102618.09;5094570;28;20028;-48
2021/12/20 05:17:57;;;;;;;18.85;3.45;;;;;;;13.01;100.00;102630.34;5094031;28;20040;-50
2021/12/20 05:20:22;;;;;;;25.48;4.40;;;;;;;13.04;100.00;102628.19;5076283;28;20036;-49
2021/12/20 05:22:49;;;;;;;24.83;4.50;;;;;;;13.05;100.00;102626.34;5075754;28;20422;-48
2021/12/20 05:25:14;;;;;;;;;;;;;;;13.03;100.00;102631.88;5094040;28;20150;-51
2021/12/20 05:27:40;;;;;;;20.60;3.20;;;;;;;13.00;100.00;102623.28;5075540;28;19904;-48
2021/12/20 05:30:08;;;;;;;20.42;3.15;;;;;;;13.05;100.00;102624.47;5075827;28;20035;-50
2021/12/20 05:32:34;;;;;;;33.47;4.38;;;;;;;13.14;100.00;102637.91;5093605;28;20036;-48
2021/12/20 05:34:59;;;;;;;32.60;4.18;;;;;;;13.02;100.00;102640.94;5093684;28;20047;-53
2021/12/20 05:37:25;;;;;;;19.10;4.03;;;;;;;13.01;100.00;102635.72;5093672;28;20024;-53
2021/12/20 05:39:50;;;;;;;27.17;3.85;;;;;;;12.99;100.00;102635.91;5074910;28;20039;-50
2021/12/20 05:42:16;;;;;;;25.63;4.97;;;;;;;13.01;100.00;102633.03;5058431;28;20035;-51
2021/12/20 05:44:41;;;;;;;29.63;4.70;;;;;;;13.02;100.00;102643.63;5093088;28;20042;-53
2021/12/20 05:47:07;;;;;;;22.80;3.83;;;;;;;13.04;100.00;102649.66;5093149;28;20304;-51
2021/12/20 05:49:33;;;;;;;22.52;4.78;;;;;;;13.03;100.00;102641.75;5075201;28;20074;-49
2021/12/20 05:52:00;;;;;;;25.63;4.55;;;;;;;12.99;100.00;102643.97;5075176;28;20114;-50
2021/12/20 05:54:26;;;;;;;29.40;3.97;;;;;;;12.98;100.00;102644.97;5093202;28;20040;-51
2021/12/20 05:56:51;;;;;;;33.00;4.30;;;;;;;12.96;100.00;102636.25;5092891;28;20115;-50
2021/12/20 05:59:17;;;;;;;23.23;3.30;;;;;;;12.83;100.00;102641.25;5093207;28;20126;-48
2021/12/20 06:01:42;;;;;;;20.27;3.23;;;;;;;12.80;100.00;102644.28;5074653;28;20448;-47
2021/12/20 06:04:08;;;;;;;19.83;4.23;;;;;;;12.77;100.00;102638.22;5093735;28;20104;-51
2021/12/20 06:06:33;;;;;;;16.07;3.37;;;;;;;12.81;100.00;102635.22;5075059;28;20036;-50
2021/12/20 06:08:59;;;;;;;19.57;3.50;;;;;;;12.82;100.00;102635.06;5074916;28;20530;-52
2021/12/20 06:11:24;;;;;;;24.85;3.97;;;;;;;12.81;100.00;102644.13;5092623;28;20122;-53
2021/12/20 06:13:51;;;;;;;20.58;2.95;;;;;;;12.87;100.00;102635.41;5093365;28;20460;-51
2021/12/20 06:16:17;;;;;;;20.95;3.55;;;;;;;12.87;100.00;102627.34;5075457;28;20413;-52
2021/12/20 06:18:42;;;;;;;23.63;4.43;;;;;;;12.85;100.00;102634.72;5092794;28;20118;-50
2021/12/20 06:21:08;;;;;;;27.50;4.38;;;;;;;12.84;100.00;102634.88;5093091;28;20122;-52
2021/12/20 06:23:34;;;;;;;21.58;4.05;;;;;;;12.81;100.00;102649.50;5078366;28;20415;-52
2021/12/20 06:26:00;;;;;;;23.80;3.93;;;;;;;12.80;100.00;102649.66;5096741;28;20469;-53
2021/12/20 06:28:26;;;;;;;;;;;;;;;12.82;100.00;102648.47;5079417;28;20260;-52
2021/12/20 06:30:52;;;;;;;20.00;3.17;;;;;;;12.83;100.00;102641.25;5079252;28;20337;-50
2021/12/20 06:33:18;;;;;;;19.02;3.78;;;;;;;12.84;100.00;102651.00;5045732;28;20480;-54
2021/12/20 06:35:43;;;;;;;25.95;5.38;;;;;;;12.78;100.00;102657.84;5078474;28;20277;-56
2021/12/20 06:38:11;;;;;;;22.98;4.63;;;;;;;12.72;100.00;102650.47;5079097;28;20028;-54
2021/12/20 06:40:38;;;;;;;26.15;4.13;;;;;;;12.71;100.00;102652.31;5097391;28;20403;-51
2021/12/20 06:43:04;;;;;;;26.40;4.93;;;;;;;12.68;100.00;102655.31;5096465;28;20024;-54
2021/12/20 06:45:30;;;;;;;22.63;3.53;;;;;;;12.62;100.00;102669.41;5096480;28;20115;-54
2021/12/20 06:47:57;;;;;;;23.13;3.85;;;;;;;12.64;100.00;102663.88;5096350;28;20052;-49
2021/12/20 06:50:23;;;;;;;26.02;5.45;;;;;;;12.54;100.00;102656.78;5078280;28;20417;-47
2021/12/20 06:52:48;;;;;;;22.90;3.88;;;;;;;12.58;100.00;102662.69;5096060;28;20071;-47
2021/12/20 06:55:14;;;;;;;18.47;3.77;;;;;;;12.54;100.00;102658.66;5096535;28;20170;-50
2021/12/20 06:57:40;;;;;;;25.40;3.60;;;;;;;12.56;100.00;102662.00;5096573;28;20271;-50
2021/12/20 07:00:06;;;;;;;26.75;4.03;;;;;;;12.50;100.00;102665.34;5062492;28;20112;-51
2021/12/20 07:02:32;;;;;;;24.30;3.60;;;;;;;12.54;100.00;102666.72;5078264;28;20542;-51
2021/12/20 07:04:58;;;;;;;17.20;2.65;;;;;;;12.54;100.00;102664.84;5061417;28;20070;-48
2021/12/20 07:07:24;;;;;;;17.53;3.53;;;;;;;12.57;100.00;102680.66;5096996;28;20040;-51
2021/12/20 07:09:49;;;;;;;14.60;2.95;;;;;;;12.61;100.00;102675.78;5077876;28;20044;-51
2021/12/20 07:12:15;;;;;;;15.27;3.13;;;;;;;12.70;100.00;102677.50;5096263;28;20040;-53
2021/12/20 07:14:41;;;;;;;17.00;4.38;;;;;;;12.76;100.00;102674.13;5077913;28;20047;-49
2021/12/20 07:17:07;;;;;;;;;;;;;;;12.54;100.00;102672.06;5078542;28;20068;-49
2021/12/20 07:19:32;;;;;;;12.50;2.73;;;;;;;12.63;100.00;102676.44;5078038;28;19916;-52
2021/12/20 07:21:58;;;;;;;14.93;2.40;;;;;;;12.69;100.00;102678.50;5077922;28;20032;-57
2021/12/20 07:24:24;;;;;;;18.70;5.10;;;;;;;12.72;100.00;102678.16;5077831;28;20032;-49
2021/12/20 07:26:49;;;;;;;13.43;2.38;;;;;;;12.72;100.00;102677.31;5077575;28;20056;-48
2021/12/20 07:29:18;;;;;;;21.73;3.27;;;;;;;12.72;100.00;102683.53;5095717;28;20117;-52
2021/12/20 07:31:44;;;;;;;21.67;3.13;;;;;;;12.69;100.00;102669.59;5061243;28;20275;-53
2021/12/20 07:34:10;;;;;;;17.80;2.97;;;;;;;12.67;100.00;102675.13;5095449;28;20047;-56
2021/12/20 07:36:37;;;;;;;21.55;3.13;;;;;;;12.69;100.00;102665.06;5095583;28;20122;-50
2021/12/20 07:39:04;;;;;;;19.58;3.03;;;;;;;12.66;100.00;102673.44;5095783;28;20036;-48
2021/12/20 07:41:29;;;;;;;18.55;3.25;;;;;;;12.67;100.00;102671.59;5077597;28;20062;-50
2021/12/20 07:43:55;;;;;;;12.47;2.30;;;;;;;12.65;100.00;102674.44;5096283;28;20032;-51
2021/12/20 07:46:20;;;;;;;25.70;4.47;;;;;;;12.53;100.00;102683.81;5077595;28;20622;-51
2021/12/20 07:48:46;;;;;;;14.13;3.03;;;;;;;12.58;100.00;102682.31;5077230;28;20334;-51
2021/12/20 07:51:12;;;;;;;20.90;3.20;;;;;;;12.59;100.00;102684.00;5095261;28;20111;-50
2021/12/20 07:53:38;;;;;;;18.98;3.53;;;;;;;12.55;100.00;102679.13;5095968;28;20399;-52
2021/12/20 07:56:04;;;;;;;15.80;3.60;;;;;;;12.59;100.00;102683.16;5095001;28;20046;-50
2021/12/20 07:58:30;;;;;;;19.23;3.00;;;;;;;12.59;100.00;102681.31;5077372;28;20365;-52
2021/12/20 08:00:58;;;;;;;17.38;3.03;;;;;;;12.54;100.00;102685.50;5094936;28;20028;-51
2021/12/20 08:03:23;;;;;;;20.00;3.83;;;;;;;12.56;100.00;102680.81;5044298;28;20056;-52
2021/12/20 08:05:49;;;;;;;23.48;3.25;;;;;;;12.61;100.00;102681.16;5095132;28;20035;-49
2021/12/20 08:08:15;;;;;;;19.38;3.70;;;;;;;12.56;100.00;102689.69;5095004;28;20432;-48
2021/12/20 08:10:41;;;;;;;23.63;3.30;;;;;;;12.58;100.00;102697.56;5094975;28;20035;-46
2021/12/20 08:13:08;;;;;;;;;;;;;;;12.60;100.00;102690.19;5077422;28;20059;-50
2021/12/20 08:15:33;;;;;;;27.30;3.95;;;;;;;12.46;100.00;102687.16;5076432;28;19911;-53
2021/12/20 08:17:59;;;;;;;16.23;3.38;;;;;;;12.55;100.00;102692.53;5094467;28;20112;-53
2021/12/20 08:20:25;;;;;;;22.00;3.85;;;;;;;12.59;100.00;102689.38;5060394;28;20117;-53
2021/12/20 08:22:51;;;;;;;17.65;3.35;;;;;;;12.72;100.00;102696.97;5094896;28;20103;-51
2021/12/20 08:25:18;;;;;;;16.47;3.60;;;;;;;12.73;100.00;102703.16;5094674;28;20119;-54
2021/12/20 08:27:44;;;;;;;20.23;3.78;;;;;;;12.73;100.00;102700.47;5077249;28;20040;-56
2021/12/20 08:30:10;;;;;;;25.55;4.13;;;;;;;12.70;100.00;102701.66;5094508;28;20453;-53
2021/12/20 08:32:36;;;;;;;18.88;3.67;;;;;;;12.80;100.00;102703.34;5094451;28;20039;-50
2021/12/20 08:35:03;;;;;;;18.02;2.97;;;;;;;12.84;100.00;102710.06;5094963;28;20044;-50
2021/12/20 08:37:29;;;;;;;25.17;4.32;;;;;;;12.83;100.00;102705.69;5076089;28;20044;-53
2021/12/20 08:39:55;;;;;;;21.10;3.45;;;;;;;12.89;100.00;102705.03;5094527;28;20031;-53
2021/12/20 08:42:20;;;;;;;16.25;3.13;;;;;;;13.00;100.00;102707.41;5076196;28;20039;-53
2021/12/20 08:44:47;;;;;;;14.30;2.83;;;;;;;12.90;100.00;102706.69;5093683;28;20362;-54
2021/12/20 08:47:13;;;;;;;16.05;3.30;;;;;;;12.90;100.00;102709.38;5094501;28;20040;-51
2021/12/20 08:49:39;;;;;;;27.55;4.20;;;;;;;12.95;100.00;102708.91;5076786;28;20040;-52
2021/12/20 08:52:05;;;;;;;16.30;4.13;;;;;;;12.97;100.00;102707.75;5059695;28;20140;-50
2021/12/20 08:54:30;;;;;;;26.50;3.83;;;;;;;13.02;100.00;102710.75;5076323;28;20059;-53
2021/12/20 08:56:57;;;;;;;14.60;3.27;;;;;;;13.08;100.00;102706.59;5094060;28;20103;-53
2021/12/20 08:59:24;;;;;;;14.55;3.78;;;;;;;13.11;100.00;102705.38;5076189;28;20060;-53
2021/12/20 09:01:50;;;;;;;20.20;3.45;;;;;;;13.05;100.00;102702.38;5094270;28;20031;-49
2021/12/20 09:04:16;;;;;;;19.52;2.95;;;;;;;13.07;100.00;102709.41;5075799;28;20385;-49
2021/12/20 09:06:42;;;;;;;21.63;4.30;;;;;;;13.09;100.00;102710.09;5094289;28;20481;-52
2021/12/20 09:09:11;;;;;;;23.63;4.28;;;;;;;13.17;100.00;102712.81;5093883;28;20123;-54
2021/12/20 09:11:37;;;;;;;21.35;3.83;;;;;;;13.12;100.00;102707.06;5094482;28;20035;-56
2021/12/20 09:14:03;;;;;;;19.95;3.85;;;;;;;13.15;100.00;102718.34;5093834;28;20040;-52
2021/12/20 09:16:29;;;;;;;17.00;3.40;;;;;;;13.18;100.00;102719.84;5093825;28;20024;-53
2021/12/20 09:18:55;;;;;;;26.20;3.70;;;;;;;13.26;100.00;102724.38;5093893;28;20039;-51
2021/12/20 09:21:21;;;;;;;18.13;3.42;;;;;;;13.24;100.00;102729.94;5093434;28;20027;-48
2021/12/20 09:23:47;;;;;;;;;;;;;;;13.23;100.00;102716.66;5093866;28;20130;-50
2021/12/20 09:26:12;;;;;;;15.00;3.30;;;;;;;13.31;100.00;102714.00;5075237;28;19946;-50
2021/12/20 09:28:38;;;;;;;20.52;3.65;;;;;;;13.32;100.00;102729.09;5093132;28;20063;-49
2021/12/20 09:31:05;;;;;;;20.55;3.85;;;;;;;13.37;100.00;102715.13;5093244;28;20094;-49
2021/12/20 09:33:30;;;;;;;;;;;;;;;13.41;100.00;102724.56;5093882;28;20044;-51
2021/12/20 09:35:56;;;;;;;19.63;4.27;;;;;;;13.45;100.00;102723.25;5092958;28;20265;-51
2021/12/20 09:38:22;;;;;;;20.93;4.63;;;;;;;13.55;100.00;102731.16;5093216;28;20035;-46
2021/12/20 09:43:38;;;;;;;19.70;4.53;;;;;;;13.52;100.00;102737.69;5061553;28;20044;-52
2021/12/20 09:46:05;;;;;;;21.47;4.30;;;;;;;13.63;100.00;102736.50;5093705;28;20040;-48
2021/12/20 09:48:31;;;;;;;26.08;3.40;;;;;;;13.57;100.00;102729.94;5058328;28;20682;-48
2021/12/20 09:50:57;;;;;;;27.70;5.30;;;;;;;13.70;99.96;102733.97;5075526;28;20468;-54
2021/12/20 09:53:23;;;;;;;15.87;4.00;;;;;;;13.79;99.93;102737.50;5092970;28;20082;-51
2021/12/20 09:55:51;;;;;;;17.83;2.90;;;;;;;13.76;98.00;102736.84;5074639;28;20351;-48
2021/12/20 09:58:21;;;;;;;17.03;2.90;;;;;;;13.87;95.10;102734.78;5075059;28;20046;-53
2021/12/20 10:00:48;;;;;;;12.97;3.43;;;;;;;13.75;92.80;102727.09;5093462;28;20768;-50
2021/12/20 10:03:14;;;;;;;;;;;;;;;13.80;92.39;102734.63;5075584;28;20267;-53
2021/12/20 10:05:40;;;;;;;15.40;3.20;;;;;;;13.98;87.47;102744.34;5058966;28;19908;-49
2021/12/20 10:08:14;;;;;;;20.02;2.80;;;;;;;14.00;86.51;102740.50;5093988;28;20027;-49
2021/12/20 10:10:45;;;;;;;17.77;2.73;;;;;;;14.12;86.00;102737.41;5093530;28;20036;-50
2021/12/20 10:13:20;;;;;;;18.50;2.63;;;;;;;14.07;89.29;102739.78;5092840;28;20405;-49
2021/12/20 10:15:46;;;;;;;18.90;4.13;;;;;;;14.11;85.06;102744.66;5093238;28;20761;-49
2021/12/20 10:18:13;;;;;;;18.33;2.93;;;;;;;14.11;85.18;102741.97;5093152;28;20292;-51
2021/12/20 10:20:40;;;;;;;16.00;3.83;;;;;;;13.99;82.73;102749.56;5093420;28;20107;-51
2021/12/20 10:23:16;;;;;;;12.90;4.07;;;;;;;14.13;84.50;102748.03;5092818;28;20714;-52
2021/12/20 10:25:43;;;;;;;18.13;3.53;;;;;;;14.18;82.58;102740.28;5058521;28;20281;-53
2021/12/20 10:28:22;;;;;;;12.70;3.23;;;;;;;14.14;82.14;102747.00;5092256;28;20352;-52
2021/12/20 10:30:52;;;;;;;22.70;3.13;;;;;;;14.08;82.73;102747.72;5074612;28;20734;-52
2021/12/20 10:33:20;;;;;;;19.67;3.60;;;;;;;13.93;81.77;102744.03;5073955;28;20722;-51
2021/12/20 10:35:54;;;;;;;16.10;2.93;;;;;;;13.98;84.33;102747.03;5092856;28;20309;-51
2021/12/20 10:38:27;;;;;;;26.57;3.87;;;;;;;14.03;85.72;102740.16;5092508;28;20257;-54
2021/12/20 10:41:12;;;;;;;16.37;4.03;;;;;;;14.07;84.04;102740.66;5092407;28;20280;-53
2021/12/20 10:43:47;;;;;;;13.37;2.83;;;;;;;14.06;83.34;102736.25;5092267;28;20460;-51
2021/12/20 10:46:20;;;;;;;14.77;2.83;;;;;;;14.10;82.75;102740.31;5092421;28;20332;-55
2021/12/20 10:48:48;;;;;;;17.37;3.40;;;;;;;14.19;82.45;102741.94;5092558;28;20272;-56
2021/12/20 10:51:30;;;;;;;24.93;3.87;;;;;;;14.27;82.48;102737.53;5092169;28;20307;-53
2021/12/20 10:54:02;;;;;;;15.00;3.40;;;;;;;14.34;81.71;102741.22;5074009;28;20268;-53
2021/12/20 10:56:33;;;;;;;12.93;3.30;;;;;;;14.31;82.44;102742.41;5092209;28;20279;-49
2021/12/20 10:59:00;;;;;;;15.87;3.70;;;;;;;14.22;82.62;102743.47;5073904;28;20279;-49
2021/12/20 11:04:20;;;;;;;16.53;3.33;;;;;;;14.23;85.98;102738.91;5092528;28;20539;-48
2021/12/20 11:09:41;;;;;;;32.67;4.70;;;;;;;14.17;83.29;102729.66;5091823;28;20261;-55
2021/12/20 11:12:13;;;;;;;20.03;4.47;;;;;;;14.31;83.51;102737.03;5077617;28;20372;-54
2021/12/20 11:14:42;;;;;;;9.67;3.23;;;;;;;14.48;83.14;102739.66;5096251;28;20292;-50
2021/12/20 11:17:22;;;;;;;22.50;4.07;;;;;;;14.59;80.14;102736.56;5095642;28;20264;-54
2021/12/20 11:19:52;;;;;;;19.17;3.73;;;;;;;14.70;78.90;102729.94;5095639;28;20272;-52
2021/12/20 11:22:24;;;;;;;17.63;4.33;;;;;;;14.77;78.27;102727.44;5095927;28;20280;-50
2021/12/20 11:24:51;;;;;;;17.20;3.43;;;;;;;14.83;78.92;102737.47;5095807;28;20295;-53
2021/12/20 11:27:30;;;;;;;13.40;3.00;;;;;;;15.02;75.98;102738.91;5077126;28;20276;-52
2021/12/20 11:29:57;;;;;;;15.80;3.40;;;;;;;15.08;75.06;102731.09;5077524;28;20582;-52
2021/12/20 11:32:25;;;;;;;13.53;3.13;;;;;;;15.40;71.88;102739.94;5095680;28;20276;-54